This is the latest recevied weather packets stored in our database for station/object XE1GMR. If no packets are shown the sender has not sent any weather packets the latest 1 day(s).
| Time | Temp. | Humidity | Pressure | Rain* | Wind** | Luminosity | Snow |
|---|---|---|---|---|---|---|---|
| 1778074515 | 19.44° C | 60% | 1123 hPa | 0 mm | - | 167 W/m² | - |
| 1778074212 | 18.33° C | 62% | 1122.9 hPa | 0 mm | - | 150 W/m² | - |
| 1778073909 | 17.78° C | 64% | 1122.8 hPa | 0 mm | - | 148 W/m² | - |
| 1778073000 | 16.67° C | 66% | 1122.7 hPa | 0 mm | - | 102 W/m² | - |
| 1778072394 | 16.67° C | 67% | 1122.8 hPa | 0 mm | - | 66 W/m² | - |
| 1778070883 | 15.56° C | 71% | 1122.8 hPa | 0 mm | - | 31 W/m² | - |
| 1778070277 | 15° C | 73% | 1122.5 hPa | 0 mm | - | 19 W/m² | - |
| 1778069672 | 15° C | 74% | 1122.6 hPa | 0 mm | - | 9 W/m² | - |
| 1778069369 | 15° C | 74% | 1122.5 hPa | 0 mm | - | 6 W/m² | - |
| 1778068160 | 15° C | 73% | 1122.5 hPa | 0 mm | - | 0 W/m² | - |
| 1778067857 | 15° C | 72% | 1122.2 hPa | 0 mm | - | 0 W/m² | - |
| 1778066949 | 15° C | 71% | 1122.2 hPa | 0 mm | - | 0 W/m² | - |
| 1778066344 | 15.56° C | 71% | 1122.1 hPa | 0 mm | - | 0 W/m² | - |
| 1778066042 | 15.56° C | 71% | 1122.4 hPa | 0 mm | - | 0 W/m² | - |
| 1778065739 | 15.56° C | 71% | 1122.1 hPa | 0 mm | - | 0 W/m² | - |
| 1778065133 | 15.56° C | 71% | 1121.9 hPa | 0 mm | - | 0 W/m² | - |
| 1778064527 | 15.56° C | 72% | 1122 hPa | 0 mm | - | 0 W/m² | - |
| 1778063922 | 15.56° C | 72% | 1121.8 hPa | 0 mm | - | 0 W/m² | - |
| 1778062407 | 15.56° C | 72% | 1121.8 hPa | 0 mm | - | 0 W/m² | - |
| 1778061502 | 16.11° C | 72% | 1121.8 hPa | 0 mm | - | 0 W/m² | - |
| 1778061198 | 16.11° C | 74% | 1121.6 hPa | 0 mm | - | 0 W/m² | - |
| 1778060594 | 16.67° C | 73% | 1121.8 hPa | 0 mm | - | 0 W/m² | - |
| 1778060292 | 16.67° C | 72% | 1121.8 hPa | 0 mm | - | 0 W/m² | - |
| 1778059384 | 16.67° C | 70% | 1122 hPa | 0 mm | - | 0 W/m² | - |
| 1778059081 | 16.67° C | 69% | 1121.9 hPa | 0 mm | - | 0 W/m² | - |
* Rain latest hour (hover to see other rain measurements)
** Current wind speed in m/s (hover to see current wind gust speed)